createdAt,value
2022-10-13T00:00:11.541Z,100.00
2022-10-13T00:05:13.023Z,100.00
2022-10-13T00:10:14.508Z,100.00
2022-10-13T00:15:16.260Z,100.00
2022-10-13T00:20:17.831Z,100.00
2022-10-13T00:25:19.348Z,100.00
2022-10-13T00:30:21.226Z,100.00
2022-10-13T00:35:22.640Z,100.00
2022-10-13T00:40:24.372Z,100.00
2022-10-13T00:45:29.476Z,100.00
2022-10-13T00:50:39.556Z,100.00
2022-10-13T00:55:43.476Z,100.00
2022-10-13T01:00:50.210Z,100.00
2022-10-13T01:05:53.664Z,100.00
2022-10-13T01:11:28.908Z,100.00
2022-10-13T01:16:40.882Z,100.00
2022-10-13T01:21:53.265Z,100.00
2022-10-13T01:27:19.296Z,100.00
2022-10-13T01:32:31.761Z,100.00
2022-10-13T01:37:44.677Z,100.00
2022-10-13T01:43:09.539Z,100.00
2022-10-13T01:48:11.232Z,100.00
2022-10-13T01:53:14.576Z,100.00
2022-10-13T01:58:16.026Z,100.00
2022-10-13T02:03:29.764Z,100.00
2022-10-13T02:08:38.207Z,100.00
2022-10-13T02:13:46.075Z,100.00
2022-10-13T02:18:48.022Z,100.00
2022-10-13T02:23:49.641Z,100.00
2022-10-13T02:28:51.620Z,100.00
2022-10-13T02:33:53.157Z,100.00
2022-10-13T02:38:54.634Z,100.00
2022-10-13T02:43:56.999Z,100.00
2022-10-13T02:48:58.803Z,100.00
2022-10-13T02:54:00.236Z,100.00
2022-10-13T02:59:01.719Z,100.00
2022-10-13T03:04:03.149Z,100.00
2022-10-13T03:09:04.825Z,100.00
2022-10-13T03:14:06.322Z,100.00
2022-10-13T03:19:07.819Z,100.00
2022-10-13T03:24:09.320Z,100.00
2022-10-13T03:29:15.649Z,100.00
2022-10-13T03:34:17.903Z,100.00
2022-10-13T03:39:19.365Z,100.00
2022-10-13T03:44:20.932Z,100.00
2022-10-13T03:49:22.370Z,100.00
2022-10-13T03:54:24.709Z,100.00
2022-10-13T03:59:26.139Z,100.00
2022-10-13T04:04:27.898Z,100.00
2022-10-13T04:09:29.358Z,100.00
2022-10-13T04:14:30.934Z,100.00
2022-10-13T04:19:32.402Z,100.00
2022-10-13T04:24:33.917Z,100.00
2022-10-13T04:29:35.366Z,100.00
2022-10-13T04:34:36.921Z,100.00
2022-10-13T04:39:38.424Z,100.00
2022-10-13T04:44:39.845Z,100.00
2022-10-13T04:49:41.276Z,100.00
2022-10-13T04:54:43.195Z,100.00
2022-10-13T04:59:44.624Z,100.00
2022-10-13T05:04:46.221Z,100.00
2022-10-13T05:09:47.799Z,100.00
2022-10-13T05:14:52.290Z,100.00
2022-10-13T05:19:54.144Z,100.00
2022-10-13T05:24:55.577Z,100.00
2022-10-13T05:29:57.091Z,100.00
2022-10-13T05:34:58.632Z,100.00
2022-10-13T05:40:00.175Z,100.00
2022-10-13T05:45:01.738Z,100.00
2022-10-13T05:50:03.658Z,100.00
2022-10-13T05:55:09.259Z,100.00
2022-10-13T06:00:14.160Z,100.00
2022-10-13T06:05:18.349Z,100.00
2022-10-13T06:10:19.973Z,100.00
2022-10-13T06:15:25.678Z,100.00
2022-10-13T06:20:30.649Z,100.00
2022-10-13T06:25:32.627Z,100.00
2022-10-13T06:30:34.088Z,100.00
2022-10-13T06:35:36.473Z,100.00
2022-10-13T06:40:38.491Z,100.00
2022-10-13T06:45:40.090Z,100.00
2022-10-13T06:50:43.031Z,100.00
2022-10-13T06:55:47.044Z,100.00
2022-10-13T07:00:50.603Z,100.00
2022-10-13T07:05:52.199Z,100.00
2022-10-13T07:10:53.655Z,100.00
2022-10-13T07:15:55.185Z,100.00
2022-10-13T07:20:58.875Z,100.00
2022-10-13T07:26:01.722Z,100.00
2022-10-13T07:31:11.908Z,100.00
2022-10-13T07:36:14.058Z,98.63
2022-10-13T07:41:16.156Z,96.98
2022-10-13T07:46:17.635Z,95.69
2022-10-13T07:51:19.705Z,94.64
2022-10-13T07:56:21.204Z,93.69
2022-10-13T08:01:22.710Z,93.73
2022-10-13T08:06:24.218Z,93.76
2022-10-13T08:11:26.138Z,94.64
2022-10-13T08:16:28.857Z,93.63
2022-10-13T08:21:56.889Z,93.11
2022-10-13T08:26:51.945Z,93.05
2022-10-13T08:31:54.278Z,93.39
2022-10-13T08:36:56.743Z,92.89
2022-10-13T08:41:58.604Z,92.46
2022-10-13T08:47:12.430Z,90.12
2022-10-13T08:52:22.633Z,88.79
2022-10-13T08:57:24.437Z,87.99
2022-10-13T09:02:31.344Z,88.41
2022-10-13T09:07:36.367Z,89.53
2022-10-13T09:12:38.173Z,89.12
2022-10-13T09:17:41.698Z,89.78
2022-10-13T09:22:43.840Z,89.41
2022-10-13T09:27:58.692Z,89.61
2022-10-13T09:33:23.280Z,89.58
2022-10-13T09:38:26.497Z,90.14
2022-10-13T09:43:30.006Z,89.57
2022-10-13T09:48:36.566Z,89.86
2022-10-13T09:53:40.642Z,91.28
2022-10-13T09:59:07.129Z,92.23
2022-10-13T10:04:16.240Z,89.69
2022-10-13T10:09:44.025Z,87.30
2022-10-13T10:14:45.765Z,85.81
2022-10-13T10:20:03.814Z,84.78
2022-10-13T10:25:36.187Z,83.71
2022-10-13T10:30:47.811Z,82.28
2022-10-13T10:35:57.428Z,80.71
2022-10-13T10:41:07.498Z,80.44
2022-10-13T10:46:22.570Z,80.17
2022-10-13T10:51:29.673Z,82.23
2022-10-13T10:56:37.417Z,83.48
2022-10-13T11:02:03.148Z,82.39
2022-10-13T11:07:05.168Z,82.33
2022-10-13T11:12:22.192Z,82.39
2022-10-13T11:17:32.407Z,82.52
2022-10-13T11:22:33.880Z,81.61
2022-10-13T11:27:35.327Z,81.27
2022-10-13T11:32:36.846Z,79.81
2022-10-13T11:38:07.700Z,79.84
2022-10-13T11:43:22.579Z,79.04
2022-10-13T11:49:02.000Z,77.97
2022-10-13T11:54:35.256Z,75.51
2022-10-13T11:59:39.970Z,76.05
2022-10-13T12:04:46.331Z,75.80
2022-10-13T12:09:53.875Z,77.27
2022-10-13T12:14:59.787Z,76.28
2022-10-13T12:20:21.630Z,76.43
2022-10-13T12:25:26.665Z,77.68
2022-10-13T12:30:37.210Z,77.59
2022-10-13T12:35:38.743Z,77.25
2022-10-13T12:40:40.340Z,78.92
2022-10-13T12:45:44.941Z,79.94
2022-10-13T12:50:46.654Z,80.19
2022-10-13T12:55:53.466Z,80.07
2022-10-13T13:01:13.178Z,79.97
2022-10-13T13:06:14.632Z,80.83
2022-10-13T13:11:33.443Z,80.20
2022-10-13T13:16:34.898Z,81.41
2022-10-13T13:21:36.347Z,80.77
2022-10-13T13:26:37.840Z,81.17
2022-10-13T13:31:39.272Z,81.58
2022-10-13T13:36:41.648Z,81.02
2022-10-13T13:41:43.097Z,81.74
2022-10-13T13:46:44.560Z,82.07
2022-10-13T13:51:46.056Z,82.64
2022-10-13T13:56:47.489Z,82.71
2022-10-13T14:01:49.000Z,83.36
2022-10-13T14:06:51.898Z,83.57
2022-10-13T14:11:53.315Z,84.28
2022-10-13T14:16:54.847Z,84.21
2022-10-13T14:21:56.359Z,84.23
2022-10-13T14:26:58.071Z,84.71
2022-10-13T14:31:59.533Z,85.27
2022-10-13T14:37:01.006Z,85.92
2022-10-13T14:42:02.519Z,85.52
2022-10-13T14:47:03.988Z,85.97
2022-10-13T14:52:05.544Z,86.62
2022-10-13T14:57:08.287Z,86.63
2022-10-13T15:02:11.203Z,86.94
2022-10-13T15:07:12.725Z,87.41
2022-10-13T15:12:14.219Z,87.50
2022-10-13T15:17:15.714Z,87.90
2022-10-13T15:22:17.170Z,87.46
2022-10-13T15:27:18.734Z,87.39
2022-10-13T15:32:21.013Z,87.35
2022-10-13T15:37:22.896Z,87.51
2022-10-13T15:42:24.597Z,87.45
2022-10-13T15:47:26.088Z,87.66
2022-10-13T15:52:32.219Z,88.63
2022-10-13T15:57:36.203Z,88.38
2022-10-13T16:02:37.762Z,88.93
2022-10-13T16:07:40.677Z,89.38
2022-10-13T16:12:49.221Z,89.69
2022-10-13T16:17:54.809Z,89.91
2022-10-13T16:22:56.254Z,90.63
2022-10-13T16:27:59.269Z,91.15
2022-10-13T16:33:00.712Z,91.07
2022-10-13T16:38:02.177Z,91.91
2022-10-13T16:43:03.616Z,92.34
2022-10-13T16:48:05.231Z,93.21
2022-10-13T16:53:06.734Z,93.38
2022-10-13T16:58:08.543Z,93.89
2022-10-13T17:03:10.405Z,94.33
2022-10-13T17:08:11.822Z,94.49
2022-10-13T17:13:13.267Z,94.76
2022-10-13T17:18:14.823Z,94.86
2022-10-13T17:23:17.112Z,94.17
2022-10-13T17:28:19.347Z,94.63
2022-10-13T17:33:20.840Z,94.21
2022-10-13T17:38:23.013Z,95.03
2022-10-13T17:43:24.473Z,94.95
2022-10-13T17:48:25.896Z,94.79
2022-10-13T17:53:27.331Z,96.87
2022-10-13T17:58:29.575Z,97.74
2022-10-13T18:03:31.218Z,99.45
2022-10-13T18:08:32.894Z,99.92
2022-10-13T18:13:35.324Z,100.00
2022-10-13T18:18:38.008Z,100.00
2022-10-13T18:23:40.553Z,100.00
2022-10-13T18:28:45.877Z,100.00
2022-10-13T18:33:47.681Z,100.00
2022-10-13T18:38:50.250Z,100.00
2022-10-13T18:43:51.905Z,100.00
2022-10-13T18:48:53.426Z,100.00
2022-10-13T18:53:54.942Z,100.00
2022-10-13T18:58:59.714Z,100.00
2022-10-13T19:04:01.768Z,100.00
2022-10-13T19:09:09.145Z,100.00
2022-10-13T19:14:12.682Z,100.00
2022-10-13T19:19:14.602Z,100.00
2022-10-13T19:24:16.081Z,100.00
2022-10-13T19:29:17.550Z,100.00
2022-10-13T19:34:19.105Z,100.00
2022-10-13T19:39:23.790Z,100.00
2022-10-13T19:44:25.780Z,100.00
2022-10-13T19:49:27.287Z,100.00
2022-10-13T19:54:33.623Z,100.00
2022-10-13T19:59:36.383Z,100.00
2022-10-13T20:04:37.821Z,100.00
2022-10-13T20:09:39.315Z,100.00
2022-10-13T20:14:40.919Z,100.00
2022-10-13T20:19:43.337Z,100.00
2022-10-13T20:24:44.779Z,100.00
2022-10-13T20:29:46.720Z,100.00
2022-10-13T20:34:48.190Z,100.00
2022-10-13T20:39:49.688Z,100.00
2022-10-13T20:44:51.230Z,100.00
2022-10-13T20:49:53.289Z,100.00
2022-10-13T20:54:54.795Z,100.00
2022-10-13T20:59:56.204Z,100.00
2022-10-13T21:04:57.741Z,100.00
2022-10-13T21:09:59.175Z,100.00
2022-10-13T21:15:00.620Z,100.00
2022-10-13T21:20:02.130Z,100.00
2022-10-13T21:25:03.832Z,100.00
2022-10-13T21:30:06.603Z,100.00
2022-10-13T21:35:08.718Z,100.00
2022-10-13T21:40:10.324Z,100.00
2022-10-13T21:45:11.800Z,100.00
2022-10-13T21:50:13.313Z,100.00
2022-10-13T21:55:14.881Z,100.00
2022-10-13T22:00:16.682Z,100.00
2022-10-13T22:05:18.262Z,100.00
2022-10-13T22:10:19.905Z,100.00
2022-10-13T22:15:21.331Z,100.00
2022-10-13T22:20:22.738Z,100.00
2022-10-13T22:25:24.229Z,100.00
2022-10-13T22:30:25.693Z,100.00
2022-10-13T22:35:27.171Z,100.00
2022-10-13T22:40:29.127Z,100.00
2022-10-13T22:45:30.593Z,100.00
2022-10-13T22:50:34.107Z,100.00
2022-10-13T22:55:39.821Z,100.00
2022-10-13T23:00:44.364Z,100.00
2022-10-13T23:05:49.079Z,100.00
2022-10-13T23:10:50.732Z,100.00
2022-10-13T23:15:52.181Z,100.00
2022-10-13T23:20:56.841Z,100.00
2022-10-13T23:26:07.492Z,100.00
2022-10-13T23:31:14.846Z,100.00
2022-10-13T23:36:19.695Z,100.00
2022-10-13T23:41:21.214Z,100.00
2022-10-13T23:46:22.788Z,100.00
2022-10-13T23:51:25.914Z,100.00
2022-10-13T23:56:27.626Z,100.00
